createdAt,value
2018-02-02T00:00:41.913Z,101658.83
2018-02-02T00:03:12.222Z,101662.62
2018-02-02T00:05:42.525Z,101664.17
2018-02-02T00:08:12.784Z,101671.63
2018-02-02T00:10:43.112Z,101664.31
2018-02-02T00:13:13.393Z,101669.81
2018-02-02T00:15:43.651Z,101669.52
2018-02-02T00:18:13.958Z,101678.52
2018-02-02T00:20:45.125Z,101686.28
2018-02-02T00:23:15.428Z,101675.33
2018-02-02T00:25:45.643Z,101684.84
2018-02-02T00:28:15.891Z,101682.82
2018-02-02T00:30:46.160Z,101683.47
2018-02-02T00:33:16.441Z,101690.33
2018-02-02T00:35:46.750Z,101688.29
2018-02-02T00:38:17.040Z,101684.19
2018-02-02T00:40:48.186Z,101685.03
2018-02-02T00:43:19.151Z,101684.81
2018-02-02T00:45:49.919Z,101680.07
2018-02-02T00:48:20.259Z,101684.52
2018-02-02T00:50:56.661Z,101677.72
2018-02-02T00:53:27.901Z,101676.66
2018-02-02T00:55:58.153Z,101681.73
2018-02-02T00:58:28.401Z,101684.63
2018-02-02T01:00:59.121Z,101677.08
2018-02-02T01:03:30.077Z,101677.59
2018-02-02T01:06:00.871Z,101680.00
2018-02-02T01:08:31.097Z,101686.64
2018-02-02T01:11:01.450Z,101690.23
2018-02-02T01:13:32.910Z,101683.42
2018-02-02T01:16:03.290Z,101691.53
2018-02-02T01:18:33.621Z,101691.16
2018-02-02T01:21:03.866Z,101693.22
2018-02-02T01:23:34.940Z,101699.59
2018-02-02T01:26:05.225Z,101700.69
2018-02-02T01:28:36.246Z,101703.26
2018-02-02T01:31:08.210Z,101704.44
2018-02-02T01:33:39.604Z,101708.25
2018-02-02T01:36:10.888Z,101713.22
2018-02-02T01:38:42.377Z,101714.88
2018-02-02T01:41:12.908Z,101713.18
2018-02-02T01:43:46.005Z,101714.83
2018-02-02T01:46:16.307Z,101716.51
2018-02-02T01:48:46.579Z,101715.96
2018-02-02T01:51:18.074Z,101724.12
2018-02-02T01:53:50.166Z,101722.77
2018-02-02T01:56:20.537Z,101728.45
2018-02-02T01:58:50.815Z,101730.90
2018-02-02T02:01:21.217Z,101732.02
2018-02-02T02:03:52.468Z,101736.33
2018-02-02T02:06:22.789Z,101742.09
2018-02-02T02:08:53.090Z,101747.52
2018-02-02T02:11:23.366Z,101760.05
2018-02-02T02:13:53.600Z,101759.96
2018-02-02T02:16:27.381Z,101757.00
2018-02-02T02:18:57.796Z,101763.88
2018-02-02T02:21:28.828Z,101765.22
2018-02-02T02:23:59.970Z,101769.61
2018-02-02T02:26:30.236Z,101766.31
2018-02-02T02:29:00.686Z,101767.95
2018-02-02T02:31:31.670Z,101769.67
2018-02-02T02:34:01.925Z,101771.16
2018-02-02T02:36:33.071Z,101769.34
2018-02-02T02:39:03.555Z,101774.03
2018-02-02T02:41:33.857Z,101783.69
2018-02-02T02:44:05.071Z,101781.63
2018-02-02T02:46:36.418Z,101785.75
2018-02-02T02:49:07.771Z,101782.37
2018-02-02T02:51:39.496Z,101783.13
2018-02-02T02:54:10.833Z,101781.91
2018-02-02T02:56:41.867Z,101783.84
2018-02-02T02:59:13.146Z,101788.45
2018-02-02T03:01:44.524Z,101788.27
2018-02-02T03:04:15.631Z,101786.63
2018-02-02T03:06:47.572Z,101787.56
2018-02-02T03:09:18.510Z,101788.28
2018-02-02T03:11:49.481Z,101781.28
2018-02-02T03:14:20.651Z,101790.99
2018-02-02T03:16:51.933Z,101794.68
2018-02-02T03:19:23.337Z,101784.77
2018-02-02T03:21:54.391Z,101788.92
2018-02-02T03:24:25.130Z,101792.98
2018-02-02T03:26:56.369Z,101790.86
2018-02-02T03:29:27.703Z,101787.25
2018-02-02T03:31:59.824Z,101793.47
2018-02-02T03:34:30.789Z,101788.33
2018-02-02T03:37:02.191Z,101792.11
2018-02-02T03:39:33.468Z,101792.41
2018-02-02T03:42:04.357Z,101791.15
2018-02-02T03:44:35.764Z,101796.02
2018-02-02T03:47:07.300Z,101794.06
2018-02-02T03:49:38.299Z,101786.97
2018-02-02T03:52:09.621Z,101803.94
2018-02-02T03:54:40.753Z,101802.75
2018-02-02T03:57:11.929Z,101804.25
2018-02-02T03:59:43.157Z,101804.52
2018-02-02T04:02:14.298Z,101806.31
2018-02-02T04:04:45.237Z,101806.55
2018-02-02T04:07:16.264Z,101812.75
2018-02-02T04:09:47.414Z,101807.30
2018-02-02T04:12:18.972Z,101809.41
2018-02-02T04:14:50.304Z,101812.48
2018-02-02T04:17:21.492Z,101808.39
2018-02-02T04:19:52.397Z,101819.23
2018-02-02T04:22:23.784Z,101822.46
2018-02-02T04:24:55.948Z,101818.38
2018-02-02T04:27:27.354Z,101818.98
2018-02-02T04:29:59.428Z,101824.52
2018-02-02T04:32:30.764Z,101823.25
2018-02-02T04:35:02.122Z,101822.41
2018-02-02T04:37:33.243Z,101826.77
2018-02-02T04:40:04.182Z,101819.30
2018-02-02T04:42:35.589Z,101823.69
2018-02-02T04:45:06.724Z,101830.88
2018-02-02T04:47:37.635Z,101830.27
2018-02-02T04:50:08.809Z,101837.95
2018-02-02T04:52:39.658Z,101835.91
2018-02-02T04:55:10.629Z,101833.03
2018-02-02T04:57:41.564Z,101841.11
2018-02-02T05:00:12.150Z,101843.78
2018-02-02T05:02:43.283Z,101842.56
2018-02-02T05:05:14.608Z,101853.73
2018-02-02T05:07:46.240Z,101847.86
2018-02-02T05:10:17.321Z,101852.91
2018-02-02T05:12:48.940Z,101856.75
2018-02-02T05:15:20.108Z,101856.41
2018-02-02T05:17:51.324Z,101860.16
2018-02-02T05:20:22.326Z,101858.14
2018-02-02T05:22:57.408Z,101857.68
2018-02-02T05:25:28.717Z,101872.58
2018-02-02T05:28:00.236Z,101870.81
2018-02-02T05:30:31.137Z,101875.48
2018-02-02T05:33:02.153Z,101880.99
2018-02-02T05:35:33.710Z,101888.90
2018-02-02T05:38:04.861Z,101885.17
2018-02-02T05:40:35.999Z,101895.24
2018-02-02T05:43:07.164Z,101900.05
2018-02-02T05:45:38.174Z,101897.17
2018-02-02T05:48:09.642Z,101888.51
2018-02-02T05:50:41.008Z,101893.43
2018-02-02T05:53:11.955Z,101896.07
2018-02-02T05:55:42.987Z,101901.50
2018-02-02T05:58:13.824Z,101904.34
2018-02-02T06:00:45.174Z,101898.86
2018-02-02T06:03:16.132Z,101904.71
2018-02-02T06:05:47.248Z,101900.63
2018-02-02T06:08:18.832Z,101903.69
2018-02-02T06:10:50.131Z,101903.75
2018-02-02T06:13:21.298Z,101891.69
2018-02-02T06:15:53.441Z,101894.40
2018-02-02T06:18:24.725Z,101898.23
2018-02-02T06:20:55.546Z,101894.52
2018-02-02T06:23:26.869Z,101900.68
2018-02-02T06:25:57.828Z,101904.23
2018-02-02T06:28:29.224Z,101909.66
2018-02-02T06:31:00.499Z,101915.91
2018-02-02T06:33:31.037Z,101913.90
2018-02-02T06:36:02.602Z,101919.34
2018-02-02T06:38:33.811Z,101919.14
2018-02-02T06:41:05.080Z,101924.28
2018-02-02T06:43:36.169Z,101928.23
2018-02-02T06:46:06.936Z,101924.25
2018-02-02T06:48:41.646Z,101909.84
2018-02-02T06:51:13.616Z,101908.03
2018-02-02T06:53:45.135Z,101913.28
2018-02-02T06:56:16.494Z,101909.96
2018-02-02T06:58:47.869Z,101905.36
2018-02-02T07:01:19.206Z,101907.22
2018-02-02T07:03:50.519Z,101913.33
2018-02-02T07:06:21.681Z,101911.48
2018-02-02T07:08:52.933Z,101915.34
2018-02-02T07:11:23.941Z,101908.27
2018-02-02T07:13:55.498Z,101913.69
2018-02-02T07:16:26.666Z,101910.97
2018-02-02T07:18:57.795Z,101904.23
2018-02-02T07:21:28.968Z,101908.16
2018-02-02T07:24:00.312Z,101897.56
2018-02-02T07:26:31.347Z,101903.20
2018-02-02T07:29:05.046Z,101896.52
2018-02-02T07:31:36.401Z,101899.17
2018-02-02T07:34:07.529Z,101898.88
2018-02-02T07:36:38.280Z,101898.59
2018-02-02T07:39:09.624Z,101893.88
2018-02-02T07:41:40.733Z,101897.08
2018-02-02T07:44:12.286Z,101890.79
2018-02-02T07:46:44.014Z,101891.41
2018-02-02T07:49:18.596Z,101893.63
2018-02-02T07:51:49.431Z,101899.55
2018-02-02T07:54:20.504Z,101899.25
2018-02-02T07:56:56.872Z,101894.87
2018-02-02T07:59:27.958Z,101892.56
2018-02-02T08:01:58.228Z,101891.09
2018-02-02T08:04:28.539Z,101897.95
2018-02-02T08:06:58.791Z,101895.73
2018-02-02T08:09:29.049Z,101901.45
2018-02-02T08:11:59.269Z,101903.23
2018-02-02T08:14:30.533Z,101898.23
2018-02-02T08:17:01.925Z,101898.00
2018-02-02T08:19:33.438Z,101902.06
2018-02-02T08:22:04.997Z,101898.30
2018-02-02T08:24:36.507Z,101896.45
2018-02-02T08:27:07.477Z,101902.37
2018-02-02T08:29:38.212Z,101897.89
2018-02-02T08:32:09.359Z,101895.34
2018-02-02T08:34:40.496Z,101900.93
2018-02-02T08:37:12.064Z,101897.47
2018-02-02T08:39:43.531Z,101907.36
2018-02-02T08:42:14.554Z,101909.41
2018-02-02T08:44:54.787Z,101907.53
2018-02-02T08:47:25.846Z,101906.84
2018-02-02T08:49:57.228Z,101903.51
2018-02-02T08:52:28.600Z,101905.08
2018-02-02T08:54:59.534Z,101904.08
2018-02-02T08:57:31.028Z,101899.67
2018-02-02T09:00:03.751Z,101903.63
2018-02-02T09:02:35.142Z,101905.34
2018-02-02T09:05:06.694Z,101910.16
2018-02-02T09:07:38.098Z,101904.64
2018-02-02T09:10:09.598Z,101900.27
2018-02-02T09:12:40.578Z,101904.55
2018-02-02T09:15:11.633Z,101899.59
2018-02-02T09:17:42.650Z,101895.15
2018-02-02T09:20:14.089Z,101897.36
2018-02-02T09:22:44.938Z,101895.84
2018-02-02T09:25:15.462Z,101896.73
2018-02-02T09:27:45.568Z,101895.37
2018-02-02T09:30:16.501Z,101900.02
2018-02-02T09:32:47.474Z,101898.94
2018-02-02T09:35:18.407Z,101902.38
2018-02-02T09:37:49.269Z,101902.80
2018-02-02T09:40:20.105Z,101906.33
2018-02-02T09:42:51.259Z,101900.73
2018-02-02T09:45:22.566Z,101905.89
2018-02-02T09:47:53.585Z,101907.00
2018-02-02T09:50:24.904Z,101906.27
2018-02-02T09:52:56.000Z,101905.31
2018-02-02T09:55:26.905Z,101904.80
2018-02-02T09:57:58.132Z,101905.89
2018-02-02T10:00:29.376Z,101900.52
2018-02-02T10:03:01.009Z,101898.81
2018-02-02T10:05:32.352Z,101896.43
2018-02-02T10:08:04.080Z,101901.36
2018-02-02T10:10:35.539Z,101899.86
2018-02-02T10:13:06.667Z,101896.55
2018-02-02T10:15:38.340Z,101900.41
2018-02-02T10:18:09.475Z,101901.37
2018-02-02T10:20:40.704Z,101902.95
2018-02-02T10:23:11.998Z,101896.91
2018-02-02T10:25:42.952Z,101894.53
2018-02-02T10:28:14.712Z,101903.28
2018-02-02T10:30:46.097Z,101903.88
2018-02-02T10:33:17.341Z,101901.55
2018-02-02T10:35:48.736Z,101904.36
2018-02-02T10:38:19.897Z,101903.95
2018-02-02T10:40:51.867Z,101905.16
2018-02-02T10:43:23.310Z,101900.08
2018-02-02T10:45:54.593Z,101898.19
2018-02-02T10:48:28.856Z,101895.86
2018-02-02T10:51:00.507Z,101885.42
2018-02-02T10:53:31.404Z,101884.02
2018-02-02T10:56:02.713Z,101891.08
2018-02-02T10:58:33.848Z,101881.92
2018-02-02T11:01:10.034Z,101882.08
2018-02-02T11:03:45.651Z,101885.33
2018-02-02T11:06:16.487Z,101885.09
2018-02-02T11:08:47.789Z,101887.70
2018-02-02T11:11:19.130Z,101887.39
2018-02-02T11:13:50.683Z,101885.14
2018-02-02T11:16:21.724Z,101880.83
2018-02-02T11:18:52.761Z,101884.66
2018-02-02T11:21:24.286Z,101875.13
2018-02-02T11:23:55.010Z,101880.67
2018-02-02T11:26:25.992Z,101879.15
2018-02-02T11:28:57.235Z,101882.98
2018-02-02T11:31:28.379Z,101886.97
2018-02-02T11:33:59.325Z,101886.44
2018-02-02T11:36:30.265Z,101890.67
2018-02-02T11:39:01.713Z,101891.23
2018-02-02T11:41:33.286Z,101890.87
2018-02-02T11:44:04.414Z,101899.80
2018-02-02T11:46:35.512Z,101882.55
2018-02-02T11:49:06.556Z,101888.05
2018-02-02T11:51:37.532Z,101884.91
2018-02-02T11:54:08.707Z,101887.61
2018-02-02T11:56:39.672Z,101889.48
2018-02-02T11:59:10.652Z,101881.17
2018-02-02T12:01:42.213Z,101887.16
2018-02-02T12:04:13.349Z,101890.70
2018-02-02T12:06:44.940Z,101879.18
2018-02-02T12:09:16.000Z,101881.94
2018-02-02T12:11:46.958Z,101872.23
2018-02-02T12:14:18.050Z,101876.01
2018-02-02T12:16:49.026Z,101878.22
2018-02-02T12:19:19.928Z,101883.70
2018-02-02T12:21:51.896Z,101885.51
2018-02-02T12:24:27.619Z,101879.61
2018-02-02T12:30:08.203Z,101889.09
2018-02-02T12:32:44.360Z,101892.83
2018-02-02T12:35:30.003Z,101891.95
2018-02-02T12:38:01.085Z,101893.28
2018-02-02T12:40:31.924Z,101896.17
2018-02-02T12:43:03.180Z,101897.77
2018-02-02T12:45:34.865Z,101898.77
2018-02-02T12:48:06.445Z,101904.66
2018-02-02T12:50:48.084Z,101890.72
2018-02-02T12:53:19.380Z,101898.70
2018-02-02T12:55:50.928Z,101889.86
2018-02-02T12:58:22.516Z,101888.66
2018-02-02T13:00:53.799Z,101897.58
2018-02-02T13:03:24.365Z,101904.28
2018-02-02T13:05:55.697Z,101905.36
2018-02-02T13:08:27.125Z,101909.48
2018-02-02T13:10:58.597Z,101905.91
2018-02-02T13:13:30.312Z,101909.01
2018-02-02T13:16:01.528Z,101906.70
2018-02-02T13:18:32.653Z,101904.21
2018-02-02T13:21:03.943Z,101908.16
2018-02-02T13:23:34.718Z,101915.09
2018-02-02T13:26:06.097Z,101915.40
2018-02-02T13:28:37.163Z,101917.26
2018-02-02T13:31:08.154Z,101922.47
2018-02-02T13:33:39.728Z,101920.31
2018-02-02T13:36:11.262Z,101922.76
2018-02-02T13:38:43.026Z,101938.02
2018-02-02T13:41:14.336Z,101927.75
2018-02-02T13:43:45.664Z,101927.64
2018-02-02T13:46:17.110Z,101941.01
2018-02-02T13:48:48.283Z,101936.84
2018-02-02T13:51:19.573Z,101929.56
2018-02-02T13:53:50.964Z,101936.88
2018-02-02T13:56:21.966Z,101932.88
2018-02-02T13:58:52.790Z,101932.59
2018-02-02T14:01:24.098Z,101940.31
2018-02-02T14:03:55.039Z,101943.79
2018-02-02T14:06:26.274Z,101945.47
2018-02-02T14:08:57.064Z,101945.70
2018-02-02T14:11:28.287Z,101949.58
2018-02-02T14:13:59.184Z,101939.94
2018-02-02T14:16:30.129Z,101955.80
2018-02-02T14:19:05.068Z,101968.75
2018-02-02T14:21:36.194Z,101965.05
2018-02-02T14:24:07.308Z,101962.89
2018-02-02T14:26:38.460Z,101957.77
2018-02-02T14:29:09.832Z,101964.80
2018-02-02T14:31:41.371Z,101956.45
2018-02-02T14:34:12.432Z,101955.56
2018-02-02T14:36:43.662Z,101956.41
2018-02-02T14:39:15.242Z,101966.64
2018-02-02T14:41:46.331Z,101965.26
2018-02-02T14:44:19.360Z,101969.61
2018-02-02T14:46:50.352Z,101966.78
2018-02-02T14:49:21.841Z,101965.95
2018-02-02T14:51:52.922Z,101963.34
2018-02-02T14:54:23.929Z,101970.52
2018-02-02T14:56:55.186Z,101976.62
2018-02-02T14:59:26.625Z,101975.09
2018-02-02T15:01:58.032Z,101974.75
2018-02-02T15:04:29.319Z,101983.94
2018-02-02T15:07:00.628Z,101985.61
2018-02-02T15:09:31.413Z,101978.48
2018-02-02T15:12:03.628Z,101982.62
2018-02-02T15:14:35.129Z,101982.88
2018-02-02T15:17:06.485Z,101983.20
2018-02-02T15:19:37.747Z,101991.05
2018-02-02T15:22:09.338Z,101999.09
2018-02-02T15:24:40.692Z,101996.39
2018-02-02T15:27:11.874Z,101999.95
2018-02-02T15:29:43.427Z,102002.27
2018-02-02T15:32:14.578Z,102013.65
2018-02-02T15:34:45.605Z,102006.47
2018-02-02T15:37:16.412Z,102005.23
2018-02-02T15:39:48.260Z,102007.04
2018-02-02T15:42:19.161Z,102009.91
2018-02-02T15:44:50.693Z,102007.39
2018-02-02T15:47:23.065Z,102006.48
2018-02-02T15:49:54.405Z,102000.98
2018-02-02T15:52:25.485Z,102001.13
2018-02-02T15:54:56.728Z,101997.67
2018-02-02T15:57:28.473Z,102002.91
2018-02-02T16:00:00.641Z,102008.41
2018-02-02T16:02:31.728Z,101996.30
2018-02-02T16:05:02.924Z,101997.25
2018-02-02T16:07:34.061Z,102003.02
2018-02-02T16:10:05.436Z,102002.73
2018-02-02T16:12:36.750Z,102003.07
2018-02-02T16:15:07.752Z,102000.48
2018-02-02T16:17:38.453Z,102007.06
2018-02-02T16:20:10.200Z,102009.23
2018-02-02T16:22:41.322Z,102008.02
2018-02-02T16:25:12.499Z,102012.73
2018-02-02T16:27:43.827Z,102023.28
2018-02-02T16:30:15.326Z,102029.23
2018-02-02T16:32:46.297Z,102030.94
2018-02-02T16:35:17.682Z,102026.75
2018-02-02T16:37:48.919Z,102016.80
2018-02-02T16:40:20.204Z,102020.23
2018-02-02T16:42:51.083Z,102022.02
2018-02-02T16:45:22.253Z,102029.89
2018-02-02T16:47:53.684Z,102032.14
2018-02-02T16:50:24.936Z,102034.23
2018-02-02T16:52:56.033Z,102040.08
2018-02-02T16:55:26.586Z,102039.66
2018-02-02T16:57:57.806Z,102043.59
2018-02-02T17:00:28.090Z,102029.69
2018-02-02T17:02:58.291Z,102032.96
2018-02-02T17:05:28.588Z,102027.86
2018-02-02T17:07:59.245Z,102030.45
2018-02-02T17:10:29.564Z,102040.59
2018-02-02T17:13:00.006Z,102040.22
2018-02-02T17:15:30.292Z,102052.98
2018-02-02T17:18:00.567Z,102051.28
2018-02-02T17:20:30.868Z,102048.14
2018-02-02T17:23:01.298Z,102049.31
2018-02-02T17:25:31.617Z,102045.91
2018-02-02T17:28:02.042Z,102047.23
2018-02-02T17:30:32.358Z,102059.33
2018-02-02T17:33:02.649Z,102050.95
2018-02-02T17:35:32.970Z,102065.47
2018-02-02T17:38:03.233Z,102052.59
2018-02-02T17:40:33.557Z,102057.72
2018-02-02T17:43:03.800Z,102056.34
2018-02-02T17:45:34.118Z,102053.56
2018-02-02T17:48:04.421Z,102057.63
2018-02-02T17:50:34.657Z,102064.36
2018-02-02T17:53:04.981Z,102057.44
2018-02-02T17:55:35.294Z,102063.20
2018-02-02T17:58:05.572Z,102059.87
2018-02-02T18:00:41.017Z,102062.69
2018-02-02T18:03:11.677Z,102061.52
2018-02-02T18:05:42.024Z,102062.01
2018-02-02T18:08:12.508Z,102067.59
2018-02-02T18:10:42.923Z,102074.05
2018-02-02T18:13:13.245Z,102072.94
2018-02-02T18:15:43.556Z,102069.88
2018-02-02T18:18:13.952Z,102067.80
2018-02-02T18:20:44.237Z,102070.33
2018-02-02T18:23:14.494Z,102067.94
2018-02-02T18:25:44.791Z,102054.50
2018-02-02T18:28:15.040Z,102058.53
2018-02-02T18:30:45.342Z,102052.17
2018-02-02T18:33:15.690Z,102043.50
2018-02-02T18:35:46.030Z,102046.64
2018-02-02T18:38:16.280Z,102041.72
2018-02-02T18:40:46.609Z,102047.37
2018-02-02T18:43:16.905Z,102045.09
2018-02-02T18:45:47.232Z,102048.33
2018-02-02T18:48:17.528Z,102043.66
2018-02-02T18:50:47.819Z,102035.94
2018-02-02T18:53:18.102Z,102036.25
2018-02-02T18:55:48.367Z,102037.45
2018-02-02T18:58:18.593Z,102030.98
2018-02-02T19:00:48.829Z,102034.91
2018-02-02T19:03:19.986Z,102036.70
2018-02-02T19:05:50.284Z,102032.42
2018-02-02T19:08:20.530Z,102024.39
2018-02-02T19:10:50.829Z,102024.96
2018-02-02T19:13:21.095Z,102035.73
2018-02-02T19:15:51.372Z,102027.85
2018-02-02T19:18:21.649Z,102029.34
2018-02-02T19:20:51.914Z,102021.49
2018-02-02T19:23:22.149Z,102025.05
2018-02-02T19:25:52.414Z,102018.24
2018-02-02T19:28:22.684Z,102012.73
2018-02-02T19:30:53.038Z,102011.25
2018-02-02T19:33:23.374Z,102012.19
2018-02-02T19:35:53.611Z,102006.25
2018-02-02T19:38:23.851Z,102002.60
2018-02-02T19:40:54.272Z,102000.25
2018-02-02T19:43:24.533Z,101999.66
2018-02-02T19:45:54.768Z,101988.08
2018-02-02T19:48:25.006Z,101981.00
2018-02-02T19:50:55.245Z,101976.27
2018-02-02T19:53:25.534Z,101979.60
2018-02-02T19:55:55.875Z,101969.02
2018-02-02T19:58:26.163Z,101983.03
2018-02-02T20:00:56.429Z,101963.36
2018-02-02T20:03:27.675Z,101962.20
2018-02-02T20:05:58.115Z,101966.14
2018-02-02T20:08:28.415Z,101954.86
2018-02-02T20:10:58.669Z,101949.27
2018-02-02T20:13:28.908Z,101941.44
2018-02-02T20:15:59.221Z,101938.64
2018-02-02T20:18:29.506Z,101937.00
2018-02-02T20:20:59.737Z,101928.68
2018-02-02T20:23:30.068Z,101930.95
2018-02-02T20:26:00.381Z,101917.20
2018-02-02T20:28:30.668Z,101914.69
2018-02-02T20:31:01.044Z,101911.50
2018-02-02T20:33:31.403Z,101903.89
2018-02-02T20:36:01.721Z,101897.04
2018-02-02T20:38:32.145Z,101892.93
2018-02-02T20:41:02.661Z,101890.31
2018-02-02T20:43:32.959Z,101885.62
2018-02-02T20:46:03.305Z,101886.09
2018-02-02T20:48:33.671Z,101884.16
2018-02-02T20:51:09.854Z,101875.75
2018-02-02T20:53:40.606Z,101865.62
2018-02-02T20:56:11.063Z,101861.17
2018-02-02T20:58:41.499Z,101858.70
2018-02-02T21:01:11.813Z,101855.66
2018-02-02T21:03:42.069Z,101850.87
2018-02-02T21:06:12.385Z,101843.51
2018-02-02T21:08:42.655Z,101837.23
2018-02-02T21:11:12.904Z,101826.32
2018-02-02T21:13:43.165Z,101822.88
2018-02-02T21:16:14.139Z,101813.59
2018-02-02T21:18:44.424Z,101809.32
2018-02-02T21:21:14.645Z,101813.14
2018-02-02T21:23:44.881Z,101808.47
2018-02-02T21:26:15.135Z,101800.39
2018-02-02T21:28:46.176Z,101797.75
2018-02-02T21:31:16.453Z,101793.19
2018-02-02T21:33:47.697Z,101791.16
2018-02-02T21:36:17.980Z,101783.42
2018-02-02T21:38:48.239Z,101779.55
2018-02-02T21:41:18.569Z,101778.65
2018-02-02T21:43:48.980Z,101773.95
2018-02-02T21:46:19.505Z,101774.62
2018-02-02T21:48:49.928Z,101767.62
2018-02-02T21:51:20.354Z,101776.09
2018-02-02T21:53:50.701Z,101766.41
2018-02-02T21:56:20.978Z,101756.11
2018-02-02T21:58:51.348Z,101748.34
2018-02-02T22:01:21.681Z,101742.42
2018-02-02T22:03:52.048Z,101744.02
2018-02-02T22:06:22.430Z,101740.20
2018-02-02T22:08:52.831Z,101743.17
2018-02-02T22:11:23.126Z,101739.05
2018-02-02T22:13:53.415Z,101740.92
2018-02-02T22:16:23.736Z,101738.86
2018-02-02T22:18:54.049Z,101741.95
2018-02-02T22:21:25.159Z,101742.50
2018-02-02T22:23:56.622Z,101743.05
2018-02-02T22:26:27.835Z,101747.22
2018-02-02T22:28:58.116Z,101744.45
2018-02-02T22:31:28.376Z,101743.98
2018-02-02T22:33:59.520Z,101739.52
2018-02-02T22:36:30.976Z,101742.00
2018-02-02T22:39:01.299Z,101747.11
2018-02-02T22:41:31.537Z,101740.25
2018-02-02T22:44:02.012Z,101734.82
2018-02-02T22:46:32.289Z,101737.54
2018-02-02T22:49:02.556Z,101741.63
2018-02-02T22:51:32.811Z,101743.87
2018-02-02T22:54:03.054Z,101744.63
2018-02-02T22:56:33.362Z,101741.52
2018-02-02T22:59:03.575Z,101745.89
2018-02-02T23:01:33.904Z,101744.33
2018-02-02T23:04:04.141Z,101747.53
2018-02-02T23:06:34.376Z,101747.08
2018-02-02T23:09:04.672Z,101745.86
2018-02-02T23:11:35.001Z,101755.44
2018-02-02T23:14:05.284Z,101760.18
2018-02-02T23:16:35.561Z,101757.94
2018-02-02T23:19:05.802Z,101758.31
2018-02-02T23:21:36.601Z,101762.77
2018-02-02T23:24:07.840Z,101766.28
2018-02-02T23:26:38.107Z,101765.17
2018-02-02T23:29:08.375Z,101769.37
2018-02-02T23:31:39.421Z,101778.05
2018-02-02T23:34:10.356Z,101781.16
2018-02-02T23:36:41.508Z,101775.19
2018-02-02T23:39:11.746Z,101779.78
2018-02-02T23:41:42.030Z,101782.61
2018-02-02T23:44:12.399Z,101783.91
2018-02-02T23:46:42.806Z,101780.59
2018-02-02T23:49:13.050Z,101771.17
2018-02-02T23:51:43.325Z,101771.64
2018-02-02T23:54:13.640Z,101769.89
2018-02-02T23:56:44.070Z,101773.20
2018-02-02T23:59:14.326Z,101776.89
